createdAt,value
2018-12-17T00:00:41.427Z,11.6
2018-12-17T00:01:42.805Z,11.7
2018-12-17T00:02:47.045Z,11.4
2018-12-17T00:03:48.376Z,11.2
2018-12-17T00:04:49.774Z,11
2018-12-17T00:05:51.098Z,10.8
2018-12-17T00:06:52.397Z,10.8
2018-12-17T00:07:53.689Z,10.6
2018-12-17T00:08:55.129Z,10.6
2018-12-17T00:09:56.578Z,10.7
2018-12-17T00:11:00.398Z,10.6
2018-12-17T00:12:02.155Z,10.6
2018-12-17T00:13:03.487Z,10.5
2018-12-17T00:14:04.860Z,10.5
2018-12-17T00:15:06.207Z,10.4
2018-12-17T00:16:07.520Z,10.5
2018-12-17T00:17:08.793Z,10.2
2018-12-17T00:18:10.097Z,9.9
2018-12-17T00:19:11.361Z,10.1
2018-12-17T00:20:12.670Z,10
2018-12-17T00:21:14.955Z,10
2018-12-17T00:22:16.270Z,9.9
2018-12-17T00:23:17.609Z,9.8
2018-12-17T00:24:19.163Z,9.6
2018-12-17T00:25:20.629Z,9.4
2018-12-17T00:26:22.312Z,9.6
2018-12-17T00:27:23.584Z,9.6
2018-12-17T00:28:24.866Z,9.6
2018-12-17T00:29:26.146Z,9.7
2018-12-17T00:30:27.541Z,9.5
2018-12-17T00:31:28.894Z,9.6
2018-12-17T00:32:33.330Z,9.4
2018-12-17T00:33:37.273Z,9.3
2018-12-17T00:34:38.566Z,9.2
2018-12-17T00:35:39.874Z,9.2
2018-12-17T00:36:41.184Z,9.2
2018-12-17T00:37:42.455Z,9.2
2018-12-17T00:38:43.776Z,9.1
2018-12-17T00:39:45.187Z,9
2018-12-17T00:40:46.636Z,9
2018-12-17T00:41:47.914Z,9.2
2018-12-17T00:42:49.200Z,9.2
2018-12-17T00:43:50.704Z,9.1
2018-12-17T00:44:51.976Z,8.8
2018-12-17T00:45:53.386Z,8.8
2018-12-17T00:46:54.680Z,9
2018-12-17T00:47:55.943Z,9
2018-12-17T00:48:57.245Z,8.8
2018-12-17T00:50:01.346Z,8.7
2018-12-17T00:51:02.662Z,8.6
2018-12-17T00:52:03.946Z,8.5
2018-12-17T00:53:05.279Z,8.5
2018-12-17T00:54:06.620Z,8.4
2018-12-17T00:55:07.945Z,8.3
2018-12-17T00:56:09.256Z,8.3
2018-12-17T00:57:10.561Z,8.3
2018-12-17T00:58:15.068Z,8.2
2018-12-17T00:59:16.669Z,8.3
2018-12-17T01:00:17.952Z,8.4
2018-12-17T01:01:19.291Z,8.3
2018-12-17T01:02:20.605Z,8.3
2018-12-17T01:03:22.934Z,8.3
2018-12-17T01:04:24.227Z,8.3
2018-12-17T01:05:25.545Z,8.1
2018-12-17T01:06:26.850Z,8.2
2018-12-17T01:07:28.113Z,8.3
2018-12-17T01:08:29.401Z,8.2
2018-12-17T01:09:30.723Z,8.3
2018-12-17T01:10:32.014Z,8.1
2018-12-17T01:11:33.325Z,7.9
2018-12-17T01:12:34.588Z,8
2018-12-17T01:13:35.870Z,8
2018-12-17T01:14:37.128Z,7.9
2018-12-17T01:15:38.430Z,7.8
2018-12-17T01:16:39.745Z,7.7
2018-12-17T01:17:41.412Z,7.9
2018-12-17T01:18:42.695Z,7.9
2018-12-17T01:19:43.964Z,7.8
2018-12-17T01:20:45.262Z,7.7
2018-12-17T01:21:46.563Z,7.7
2018-12-17T01:22:50.290Z,7.7
2018-12-17T01:23:51.561Z,7.7
2018-12-17T01:24:52.862Z,7.7
2018-12-17T01:25:54.148Z,7.7
2018-12-17T01:26:55.487Z,7.8
2018-12-17T01:27:56.794Z,7.8
2018-12-17T01:29:00.826Z,7.9
2018-12-17T01:30:02.145Z,7.9
2018-12-17T01:31:03.457Z,7.8
2018-12-17T01:32:07.585Z,7.8
2018-12-17T01:33:08.866Z,7.7
2018-12-17T01:34:10.151Z,7.7
2018-12-17T01:35:11.428Z,7.7
2018-12-17T01:36:12.695Z,7.7
2018-12-17T01:37:14.035Z,7.6
2018-12-17T01:38:15.320Z,7.7
2018-12-17T01:39:16.612Z,7.6
2018-12-17T01:40:17.889Z,7.5
2018-12-17T01:41:19.161Z,7.7
2018-12-17T01:42:20.557Z,7.7
2018-12-17T01:43:21.835Z,7.8
2018-12-17T01:44:23.148Z,7.7
2018-12-17T01:45:24.429Z,7.8
2018-12-17T01:46:25.697Z,7.8
2018-12-17T01:47:27.016Z,7.8
2018-12-17T01:48:28.309Z,7.7
2018-12-17T01:49:29.577Z,7.6
2018-12-17T01:50:30.844Z,7.5
2018-12-17T01:51:32.136Z,7.6
2018-12-17T01:52:33.438Z,7.6
2018-12-17T01:53:34.701Z,7.5
2018-12-17T01:54:35.976Z,7.7
2018-12-17T01:55:37.244Z,7.6
2018-12-17T01:56:38.511Z,7.7
2018-12-17T01:57:39.831Z,7.6
2018-12-17T01:58:41.122Z,7.5
2018-12-17T01:59:45.408Z,7.6
2018-12-17T02:00:46.986Z,7.7
2018-12-17T02:01:48.258Z,7.5
2018-12-17T02:02:49.640Z,7.4
2018-12-17T02:03:50.920Z,7.5
2018-12-17T02:04:52.205Z,7.5
2018-12-17T02:05:53.478Z,7.4
2018-12-17T02:06:54.753Z,7.6
2018-12-17T02:07:56.073Z,7.5
2018-12-17T02:08:57.367Z,7.5
2018-12-17T02:09:58.647Z,7.4
2018-12-17T02:10:59.925Z,7.3
2018-12-17T02:12:01.207Z,7.3
2018-12-17T02:13:02.505Z,7.4
2018-12-17T02:14:03.796Z,7.5
2018-12-17T02:15:10.224Z,7.6
2018-12-17T02:16:11.496Z,7.5
2018-12-17T02:17:12.769Z,7.3
2018-12-17T02:18:14.365Z,7.2
2018-12-17T02:19:15.646Z,7.4
2018-12-17T02:20:16.930Z,7.5
2018-12-17T02:21:18.201Z,7.4
2018-12-17T02:22:19.466Z,7.4
2018-12-17T02:23:20.773Z,7.4
2018-12-17T02:24:22.036Z,7.5
2018-12-17T02:25:23.330Z,7.5
2018-12-17T02:26:24.583Z,7.5
2018-12-17T02:27:25.846Z,7.4
2018-12-17T02:28:27.154Z,7.3
2018-12-17T02:29:28.432Z,7.5
2018-12-17T02:30:29.709Z,7.4
2018-12-17T02:31:32.623Z,7.4
2018-12-17T02:32:33.896Z,7.5
2018-12-17T02:33:35.217Z,7.4
2018-12-17T02:34:36.485Z,7.5
2018-12-17T02:35:37.748Z,7.4
2018-12-17T02:36:39.012Z,7.5
2018-12-17T02:37:40.328Z,7.3
2018-12-17T02:38:41.693Z,7.4
2018-12-17T02:39:43.000Z,7.4
2018-12-17T02:40:44.310Z,7.4
2018-12-17T02:41:45.597Z,7.3
2018-12-17T02:42:46.904Z,7.2
2018-12-17T02:43:48.229Z,7.3
2018-12-17T02:44:49.489Z,7.1
2018-12-17T02:45:50.753Z,7.4
2018-12-17T02:46:52.054Z,7.4
2018-12-17T02:47:53.333Z,7.2
2018-12-17T02:48:54.681Z,7.3
2018-12-17T02:49:55.956Z,7.1
2018-12-17T02:50:59.697Z,7.2
2018-12-17T02:52:00.968Z,7.2
2018-12-17T02:53:02.244Z,7.1
2018-12-17T02:54:06.602Z,7.1
2018-12-17T02:55:07.875Z,7.1
2018-12-17T02:56:09.155Z,7.1
2018-12-17T02:57:10.428Z,7.1
2018-12-17T02:58:11.712Z,7.2
2018-12-17T02:59:13.488Z,7.3
2018-12-17T03:00:14.784Z,7.3
2018-12-17T03:01:16.072Z,7.2
2018-12-17T03:02:17.371Z,7.2
2018-12-17T03:03:18.653Z,7.2
2018-12-17T03:04:19.992Z,7.1
2018-12-17T03:05:21.293Z,7.2
2018-12-17T03:06:25.612Z,7.3
2018-12-17T03:07:26.883Z,7.2
2018-12-17T03:08:30.345Z,7.2
2018-12-17T03:09:31.685Z,7.2
2018-12-17T03:10:32.970Z,7.1
2018-12-17T03:11:36.460Z,7.1
2018-12-17T03:12:37.750Z,7.2
2018-12-17T03:13:39.053Z,7.3
2018-12-17T03:14:40.384Z,7.3
2018-12-17T03:15:41.727Z,7
2018-12-17T03:16:43.006Z,7.1
2018-12-17T03:17:44.269Z,7.1
2018-12-17T03:18:45.526Z,7
2018-12-17T03:19:46.999Z,7
2018-12-17T03:20:48.272Z,7.1
2018-12-17T03:21:49.537Z,7.1
2018-12-17T03:22:50.811Z,7.1
2018-12-17T03:23:52.136Z,7
2018-12-17T03:24:53.510Z,7
2018-12-17T03:25:54.830Z,7.2
2018-12-17T03:26:56.116Z,7.1
2018-12-17T03:27:59.044Z,7
2018-12-17T03:29:00.325Z,7
2018-12-17T03:30:01.663Z,7
2018-12-17T03:31:02.954Z,6.9
2018-12-17T03:32:04.240Z,6.8
2018-12-17T03:33:05.510Z,7
2018-12-17T03:34:06.781Z,7
2018-12-17T03:35:08.097Z,7
2018-12-17T03:36:09.364Z,6.9
2018-12-17T03:37:10.642Z,6.9
2018-12-17T03:38:11.912Z,6.8
2018-12-17T03:39:13.199Z,7
2018-12-17T03:40:14.519Z,6.8
2018-12-17T03:41:15.794Z,6.9
2018-12-17T03:42:17.060Z,6.9
2018-12-17T03:43:18.333Z,7
2018-12-17T03:44:19.606Z,7.1
2018-12-17T03:45:20.940Z,7
2018-12-17T03:46:22.209Z,7
2018-12-17T03:47:23.507Z,7
2018-12-17T03:48:24.772Z,7
2018-12-17T03:49:26.036Z,7.1
2018-12-17T03:50:27.524Z,7
2018-12-17T03:51:28.802Z,6.9
2018-12-17T03:52:30.093Z,6.9
2018-12-17T03:53:31.361Z,6.9
2018-12-17T03:54:32.627Z,6.9
2018-12-17T03:55:33.941Z,7
2018-12-17T03:56:35.212Z,7
2018-12-17T03:57:36.492Z,6.9
2018-12-17T03:58:37.768Z,6.9
2018-12-17T03:59:39.052Z,6.9
2018-12-17T04:00:40.378Z,6.9
2018-12-17T04:01:41.677Z,6.9
2018-12-17T04:02:42.972Z,6.8
2018-12-17T04:03:44.309Z,6.7
2018-12-17T04:04:45.573Z,6.8
2018-12-17T04:05:46.975Z,6.8
2018-12-17T04:06:48.270Z,6.8
2018-12-17T04:07:49.552Z,6.8
2018-12-17T04:08:50.830Z,6.8
2018-12-17T04:09:52.257Z,7
2018-12-17T04:10:53.602Z,7
2018-12-17T04:11:54.868Z,7
2018-12-17T04:12:56.172Z,6.8
2018-12-17T04:13:57.461Z,6.8
2018-12-17T04:14:58.726Z,6.9
2018-12-17T04:16:00.091Z,6.9
2018-12-17T04:17:07.173Z,7
2018-12-17T04:18:08.577Z,7
2018-12-17T04:19:09.868Z,7
2018-12-17T04:20:11.337Z,7.2
2018-12-17T04:21:12.689Z,7.2
2018-12-17T04:22:13.997Z,7.2
2018-12-17T04:23:15.321Z,7.1
2018-12-17T04:24:16.616Z,7.1
2018-12-17T04:25:17.931Z,7
2018-12-17T04:26:19.222Z,7.1
2018-12-17T04:27:20.503Z,7.1
2018-12-17T04:28:24.257Z,7.1
2018-12-17T04:29:25.553Z,7.3
2018-12-17T04:30:26.835Z,7.4
2018-12-17T04:31:28.212Z,7.3
2018-12-17T04:32:29.506Z,7.3
2018-12-17T04:33:30.801Z,7.4
2018-12-17T04:34:32.075Z,7.4
2018-12-17T04:35:33.350Z,7.6
2018-12-17T04:36:34.656Z,7.4
2018-12-17T04:37:35.929Z,7.4
2018-12-17T04:38:37.194Z,7.3
2018-12-17T04:39:38.442Z,7.3
2018-12-17T04:40:39.729Z,7.4
2018-12-17T04:41:41.052Z,7.3
2018-12-17T04:42:42.316Z,7.2
2018-12-17T04:43:43.616Z,7.3
2018-12-17T04:44:44.908Z,7.4
2018-12-17T04:45:46.224Z,7.3
2018-12-17T04:46:47.507Z,7.2
2018-12-17T04:47:48.803Z,7.3
2018-12-17T04:48:50.123Z,7.3
2018-12-17T04:49:51.384Z,7.2
2018-12-17T04:50:52.638Z,7.2
2018-12-17T04:51:54.128Z,7.1
2018-12-17T04:52:55.408Z,7.2
2018-12-17T04:53:56.706Z,7.2
2018-12-17T04:54:57.971Z,7.1
2018-12-17T04:55:59.249Z,7.2
2018-12-17T04:57:00.577Z,7.2
2018-12-17T04:58:01.879Z,7.2
2018-12-17T04:59:03.177Z,7.2
2018-12-17T05:00:04.463Z,7.3
2018-12-17T05:01:05.726Z,7.2
2018-12-17T05:02:07.047Z,7.3
2018-12-17T05:03:08.317Z,7.2
2018-12-17T05:04:09.616Z,7.3
2018-12-17T05:05:10.916Z,7.2
2018-12-17T05:06:12.185Z,7.3
2018-12-17T05:07:13.508Z,7.3
2018-12-17T05:08:15.134Z,7.2
2018-12-17T05:09:16.402Z,7.5
2018-12-17T05:10:17.711Z,7.5
2018-12-17T05:11:18.995Z,7.5
2018-12-17T05:12:20.328Z,7.3
2018-12-17T05:13:21.594Z,7.5
2018-12-17T05:14:22.876Z,7.5
2018-12-17T05:15:24.433Z,7.5
2018-12-17T05:16:25.718Z,7.4
2018-12-17T05:17:27.049Z,7.5
2018-12-17T05:18:28.348Z,7.3
2018-12-17T05:19:29.709Z,7.3
2018-12-17T05:20:31.012Z,7.4
2018-12-17T05:21:32.327Z,7.4
2018-12-17T05:22:33.637Z,7.4
2018-12-17T05:23:34.928Z,7.5
2018-12-17T05:24:36.188Z,7.6
2018-12-17T05:25:37.467Z,7.7
2018-12-17T05:26:38.724Z,7.9
2018-12-17T05:27:40.011Z,7.9
2018-12-17T05:28:41.304Z,8
2018-12-17T05:29:45.341Z,7.8
2018-12-17T05:30:46.626Z,7.7
2018-12-17T05:31:47.920Z,7.8
2018-12-17T05:32:49.826Z,7.9
2018-12-17T05:33:51.107Z,8.1
2018-12-17T05:34:52.369Z,8.1
2018-12-17T05:35:53.668Z,8
2018-12-17T05:36:54.919Z,7.9
2018-12-17T05:37:56.286Z,7.9
2018-12-17T05:38:57.564Z,7.9
2018-12-17T05:39:58.865Z,7.9
2018-12-17T05:41:00.153Z,7.8
2018-12-17T05:42:01.437Z,7.9
2018-12-17T05:43:02.792Z,8.1
2018-12-17T05:44:06.288Z,7.7
2018-12-17T05:45:08.981Z,7.7
2018-12-17T05:46:10.271Z,7.5
2018-12-17T05:47:11.602Z,7.5
2018-12-17T05:48:12.926Z,7.6
2018-12-17T05:49:17.132Z,7.6
2018-12-17T05:50:18.429Z,7.4
2018-12-17T05:51:19.724Z,7.6
2018-12-17T05:52:21.005Z,7.5
2018-12-17T05:53:22.334Z,7.3
2018-12-17T05:54:23.635Z,7.3
2018-12-17T05:55:24.945Z,7.1
2018-12-17T05:56:26.217Z,7.2
2018-12-17T05:57:27.729Z,7.4
2018-12-17T05:58:29.061Z,7.4
2018-12-17T05:59:30.381Z,7.4
2018-12-17T06:00:31.673Z,7.4
2018-12-17T06:01:32.949Z,7.7
2018-12-17T06:02:34.237Z,7.6
2018-12-17T06:03:36.145Z,7.7
2018-12-17T06:04:37.508Z,7.8
2018-12-17T06:05:40.465Z,7.7
2018-12-17T06:06:41.745Z,7.8
2018-12-17T06:07:43.015Z,7.7
2018-12-17T06:08:44.329Z,7.6
2018-12-17T06:09:45.608Z,7.7
2018-12-17T06:10:49.233Z,7.7
2018-12-17T06:11:50.508Z,7.6
2018-12-17T06:12:51.784Z,7.6
2018-12-17T06:13:54.285Z,7.5
2018-12-17T06:14:55.554Z,7.5
2018-12-17T06:15:56.821Z,7.8
2018-12-17T06:16:58.095Z,7.8
2018-12-17T06:17:59.400Z,7.8
2018-12-17T06:19:00.725Z,7.8
2018-12-17T06:20:02.001Z,7.9
2018-12-17T06:21:03.316Z,7.8
2018-12-17T06:22:04.616Z,7.7
2018-12-17T06:23:07.159Z,7.7
2018-12-17T06:24:08.502Z,7.8
2018-12-17T06:25:09.792Z,7.9
2018-12-17T06:26:13.304Z,7.8
2018-12-17T06:27:15.048Z,8
2018-12-17T06:28:16.340Z,8
2018-12-17T06:29:17.656Z,8
2018-12-17T06:30:18.947Z,8
2018-12-17T06:31:20.179Z,7.9
2018-12-17T06:32:21.481Z,8
2018-12-17T06:33:22.784Z,8.1
2018-12-17T06:34:24.100Z,8.1
2018-12-17T06:35:28.056Z,8.2
2018-12-17T06:36:29.616Z,8
2018-12-17T06:37:33.145Z,8
2018-12-17T06:38:34.445Z,7.8
2018-12-17T06:39:35.826Z,8.2
2018-12-17T06:40:39.197Z,8.1
2018-12-17T06:41:40.482Z,8.3
2018-12-17T06:42:41.783Z,8.2
2018-12-17T06:43:43.086Z,8.1
2018-12-17T06:44:45.546Z,8.2
2018-12-17T06:45:46.866Z,8.2
2018-12-17T06:46:48.158Z,8.1
2018-12-17T06:47:49.443Z,7.9
2018-12-17T06:48:50.725Z,8.1
2018-12-17T06:49:52.031Z,8.1
2018-12-17T06:50:53.373Z,8.1
2018-12-17T06:51:54.644Z,8.1
2018-12-17T06:52:55.941Z,8.2
2018-12-17T06:53:59.420Z,8.1
2018-12-17T06:55:05.794Z,8
2018-12-17T06:56:07.204Z,8
2018-12-17T06:57:08.499Z,8
2018-12-17T06:58:12.822Z,7.8
2018-12-17T06:59:14.146Z,7.9
2018-12-17T07:00:15.490Z,8
2018-12-17T07:01:16.824Z,7.9
2018-12-17T07:02:18.143Z,8
2018-12-17T07:03:19.473Z,7.9
2018-12-17T07:04:20.805Z,8
2018-12-17T07:05:22.121Z,8
2018-12-17T07:06:23.407Z,7.8
2018-12-17T07:07:24.696Z,8.1
2018-12-17T07:08:27.697Z,8.3
2018-12-17T07:09:29.013Z,8.2
2018-12-17T07:10:30.329Z,7.8
2018-12-17T07:11:32.322Z,8
2018-12-17T07:12:33.642Z,7.8
2018-12-17T07:13:37.133Z,7.8
2018-12-17T07:14:43.450Z,8.8
2018-12-17T07:15:47.254Z,9.9
2018-12-17T07:16:49.996Z,11
2018-12-17T07:17:52.272Z,11.3
2018-12-17T07:18:53.575Z,11.6
2018-12-17T07:19:55.170Z,11.9
2018-12-17T07:20:56.504Z,12
2018-12-17T07:22:00.613Z,12.1
2018-12-17T07:23:02.135Z,12.3
2018-12-17T07:24:04.266Z,12.4
2018-12-17T07:25:11.113Z,12.4
2018-12-17T07:26:12.610Z,12.3
2018-12-17T07:27:15.185Z,12.3
2018-12-17T07:28:26.635Z,12.4
2018-12-17T07:29:31.818Z,12.3
2018-12-17T07:30:33.150Z,12.3
2018-12-17T07:31:34.461Z,12.3
2018-12-17T07:32:35.753Z,12.4
2018-12-17T07:33:37.033Z,12.4
2018-12-17T07:34:38.411Z,12.4
2018-12-17T07:35:39.749Z,12.4
2018-12-17T07:36:41.266Z,12.4
2018-12-17T07:37:45.663Z,12.4
2018-12-17T07:38:46.972Z,12.4
2018-12-17T07:39:49.760Z,12.6
2018-12-17T07:41:05.476Z,12.5
2018-12-17T07:42:06.820Z,12.8
2018-12-17T07:43:10.845Z,13
2018-12-17T07:44:12.157Z,13
2018-12-17T07:45:13.474Z,13
2018-12-17T07:46:16.877Z,13.2
2018-12-17T07:47:18.214Z,13.4
2018-12-17T07:48:19.732Z,13.7
2018-12-17T07:49:21.025Z,13.8
2018-12-17T07:50:25.359Z,13.7
2018-12-17T07:51:28.016Z,13.9
2018-12-17T07:52:29.358Z,14.1
2018-12-17T07:53:31.127Z,14.2
2018-12-17T07:54:32.404Z,14.4
2018-12-17T07:55:33.706Z,14.4
2018-12-17T07:56:35.056Z,14.4
2018-12-17T07:57:37.621Z,14.4
2018-12-17T07:58:41.970Z,14.4
2018-12-17T07:59:43.320Z,14.4
2018-12-17T08:00:44.668Z,14.3
2018-12-17T08:01:47.094Z,14.4
2018-12-17T08:02:51.535Z,14.5
2018-12-17T08:03:52.837Z,14.7
2018-12-17T08:04:54.429Z,14.9
2018-12-17T08:05:58.796Z,15
2018-12-17T08:07:00.136Z,15.1
2018-12-17T08:08:04.058Z,15
2018-12-17T08:09:05.376Z,15.1
2018-12-17T08:10:06.681Z,15.1
2018-12-17T08:11:13.606Z,15.3
2018-12-17T08:12:14.912Z,15.4
2018-12-17T08:13:16.260Z,15.5
2018-12-17T08:14:17.529Z,15.5
2018-12-17T08:15:19.175Z,15.8
2018-12-17T08:16:20.454Z,15.8
2018-12-17T08:17:21.742Z,15.9
2018-12-17T08:18:23.114Z,15.8
2018-12-17T08:19:24.424Z,15.8
2018-12-17T08:20:25.710Z,15.6
2018-12-17T08:21:27.041Z,15.7
2018-12-17T08:22:28.366Z,15.7
2018-12-17T08:23:29.754Z,15.4
2018-12-17T08:24:31.262Z,15.5
2018-12-17T08:25:32.661Z,15.6
2018-12-17T08:26:35.048Z,15.5
2018-12-17T08:27:36.416Z,15.5
2018-12-17T08:28:44.441Z,15.4
2018-12-17T08:29:45.734Z,15.5
2018-12-17T08:30:47.050Z,16
2018-12-17T08:31:48.379Z,16.3
2018-12-17T08:32:49.692Z,16.3
2018-12-17T08:33:51.053Z,16.1
2018-12-17T08:34:52.369Z,16.2
2018-12-17T08:35:53.706Z,16.2
2018-12-17T08:36:54.987Z,16.3
2018-12-17T08:37:56.288Z,16.4
2018-12-17T08:38:57.706Z,16.5
2018-12-17T08:39:59.039Z,16.5
2018-12-17T08:41:00.389Z,16.6
2018-12-17T08:42:04.678Z,16.8
2018-12-17T08:43:06.719Z,16.7
2018-12-17T08:44:10.710Z,16.7
2018-12-17T08:45:12.006Z,16.7
2018-12-17T08:46:13.304Z,16.6
2018-12-17T08:47:17.262Z,16.5
2018-12-17T08:48:21.643Z,16.6
2018-12-17T08:49:22.976Z,16.7
2018-12-17T08:50:24.286Z,16.6
2018-12-17T08:51:25.593Z,17
2018-12-17T08:52:27.331Z,16.9
2018-12-17T08:53:28.633Z,16.8
2018-12-17T08:54:29.992Z,16.9
2018-12-17T08:55:31.314Z,16.8
2018-12-17T08:56:33.882Z,17
2018-12-17T08:57:38.872Z,17.1
2018-12-17T08:58:40.295Z,17.2
2018-12-17T08:59:45.878Z,17.1
2018-12-17T09:00:47.181Z,17.3
2018-12-17T09:01:48.498Z,17.2
2018-12-17T09:02:52.025Z,17.1
2018-12-17T09:03:53.334Z,17
2018-12-17T09:04:54.690Z,17
2018-12-17T09:05:56.012Z,17
2018-12-17T09:06:57.326Z,17
2018-12-17T09:07:58.644Z,17.2
2018-12-17T09:08:59.943Z,17.2
2018-12-17T09:10:01.324Z,17.2
2018-12-17T09:11:02.693Z,17.1
2018-12-17T09:12:06.547Z,17.1
2018-12-17T09:13:07.868Z,17.2
2018-12-17T09:14:09.217Z,17.2
2018-12-17T09:15:10.536Z,17.4
2018-12-17T09:16:26.300Z,17.4
2018-12-17T09:17:29.268Z,17.5
2018-12-17T09:18:30.584Z,17.6
2018-12-17T09:19:31.890Z,17.5
2018-12-17T09:20:34.994Z,17.5
2018-12-17T09:21:37.481Z,17.4
2018-12-17T09:22:38.981Z,17.5
2018-12-17T09:23:40.308Z,17.7
2018-12-17T09:24:50.464Z,17.7
2018-12-17T09:25:51.824Z,17.6
2018-12-17T09:26:53.252Z,17.4
2018-12-17T09:27:55.036Z,17.3
2018-12-17T09:28:56.338Z,17.4
2018-12-17T09:29:57.689Z,17.5
2018-12-17T09:31:01.857Z,17.6
2018-12-17T09:32:03.179Z,17.7
2018-12-17T09:33:04.656Z,17.8
2018-12-17T09:34:06.336Z,17.9
2018-12-17T09:35:07.662Z,17.9
2018-12-17T09:36:10.267Z,17.9
2018-12-17T09:37:11.668Z,17.9
2018-12-17T09:38:12.992Z,18.1
2018-12-17T09:39:14.314Z,18.1
2018-12-17T09:40:16.329Z,18
2018-12-17T09:41:20.847Z,18
2018-12-17T09:42:23.520Z,18
2018-12-17T09:43:29.165Z,18.1
2018-12-17T09:44:30.475Z,18
2018-12-17T09:45:31.807Z,18
2018-12-17T09:46:33.273Z,17.9
2018-12-17T09:47:34.825Z,18.1
2018-12-17T09:48:36.124Z,18.2
2018-12-17T09:49:37.446Z,18.2
2018-12-17T09:50:38.745Z,18.2
2018-12-17T09:51:40.081Z,17.9
2018-12-17T09:52:41.434Z,18.1
2018-12-17T09:53:44.850Z,18.1
2018-12-17T09:54:46.168Z,18.1
2018-12-17T09:55:53.499Z,18.2
2018-12-17T09:56:54.844Z,18.1
2018-12-17T09:57:56.137Z,18.2
2018-12-17T09:58:57.449Z,18.2
2018-12-17T09:59:58.982Z,18.2
2018-12-17T10:01:00.720Z,18.4
2018-12-17T10:02:02.674Z,18.4
2018-12-17T10:03:06.394Z,18.5
2018-12-17T10:04:07.735Z,18.4
2018-12-17T10:05:10.402Z,18.4
2018-12-17T10:06:11.753Z,18.5
2018-12-17T10:07:13.122Z,18.4
2018-12-17T10:08:14.449Z,18.2
2018-12-17T10:09:18.272Z,18.2
2018-12-17T10:10:19.578Z,18.4
2018-12-17T10:11:20.955Z,18.3
2018-12-17T10:12:22.842Z,18.2
2018-12-17T10:13:24.458Z,18.3
2018-12-17T10:14:25.821Z,18.3
2018-12-17T10:15:27.145Z,18.3
2018-12-17T10:16:28.508Z,18.3
2018-12-17T10:17:29.901Z,18.3
2018-12-17T10:18:36.764Z,18.3
2018-12-17T10:19:42.666Z,18.4
2018-12-17T10:20:46.458Z,18.3
2018-12-17T10:21:47.773Z,18.3
2018-12-17T10:22:52.055Z,18.3
2018-12-17T10:23:53.375Z,18.3
2018-12-17T10:24:55.113Z,18.3
2018-12-17T10:25:57.036Z,18.3
2018-12-17T10:26:58.595Z,18.3
2018-12-17T10:28:04.083Z,18.3
2018-12-17T10:29:09.578Z,18.2
2018-12-17T10:30:10.925Z,18.2
2018-12-17T10:31:12.300Z,18.4
2018-12-17T10:32:13.915Z,18.4
2018-12-17T10:33:19.352Z,18.4
2018-12-17T10:34:20.741Z,18.3
2018-12-17T10:35:25.153Z,18.3
2018-12-17T10:36:26.486Z,18.3
2018-12-17T10:37:29.618Z,18.4
2018-12-17T10:38:33.186Z,18.3
2018-12-17T10:39:35.051Z,18.2
2018-12-17T10:40:36.852Z,18.2
2018-12-17T10:41:38.181Z,18.1
2018-12-17T10:42:40.100Z,18.1
2018-12-17T10:43:45.071Z,18.1
2018-12-17T10:44:49.715Z,18.1
2018-12-17T10:45:51.308Z,18.3
2018-12-17T10:46:52.688Z,18.3
2018-12-17T10:47:54.109Z,18.3
2018-12-17T10:48:55.497Z,18.4
2018-12-17T10:49:58.135Z,18.5
2018-12-17T10:50:59.504Z,18.5
2018-12-17T10:52:01.002Z,18.5
2018-12-17T10:53:04.763Z,18.6
2018-12-17T10:54:06.112Z,18.6
2018-12-17T10:55:07.439Z,18.7
2018-12-17T10:56:11.087Z,18.8
2018-12-17T10:57:12.407Z,18.7
2018-12-17T10:58:22.935Z,18.7
2018-12-17T10:59:29.606Z,18.7
2018-12-17T11:00:30.960Z,18.7
2018-12-17T11:01:32.530Z,18.9
2018-12-17T11:02:33.924Z,18.9
2018-12-17T11:03:35.246Z,18.9
2018-12-17T11:04:38.012Z,19
2018-12-17T11:05:39.554Z,19.1
2018-12-17T11:06:41.152Z,19
2018-12-17T11:07:45.591Z,19
2018-12-17T11:08:46.960Z,19
2018-12-17T11:09:48.564Z,18.9
2018-12-17T11:11:12.185Z,18.8
2018-12-17T11:12:13.492Z,18.9
2018-12-17T11:13:14.822Z,19
2018-12-17T11:14:28.222Z,19.1
2018-12-17T11:15:29.771Z,19
2018-12-17T11:16:31.375Z,19.1
2018-12-17T11:17:32.678Z,18.9
2018-12-17T11:18:36.670Z,18.9
2018-12-17T11:19:38.278Z,19.1
2018-12-17T11:20:39.660Z,19.2
2018-12-17T11:21:43.433Z,19
2018-12-17T11:22:47.898Z,19
2018-12-17T11:23:54.144Z,19
2018-12-17T11:24:58.120Z,19
2018-12-17T11:26:02.164Z,19
2018-12-17T11:27:03.652Z,19.3
2018-12-17T11:28:07.389Z,19.3
2018-12-17T11:29:08.727Z,19.2
2018-12-17T11:30:10.069Z,19.1
2018-12-17T11:31:11.465Z,19.1
2018-12-17T11:32:12.799Z,19.2
2018-12-17T11:33:14.137Z,19.3
2018-12-17T11:34:18.397Z,19.5
2018-12-17T11:35:22.529Z,19.5
2018-12-17T11:36:27.017Z,19.3
2018-12-17T11:37:28.305Z,19.3
2018-12-17T11:38:29.695Z,19.4
2018-12-17T11:39:31.333Z,19.5
2018-12-17T11:40:33.153Z,19.4
2018-12-17T11:41:34.533Z,19.4
2018-12-17T11:42:35.972Z,19.5
2018-12-17T11:43:43.564Z,19.6
2018-12-17T11:44:45.149Z,19.6
2018-12-17T11:45:46.510Z,19.6
2018-12-17T11:46:50.625Z,19.5
2018-12-17T11:47:52.168Z,19.5
2018-12-17T11:48:53.515Z,19.5
2018-12-17T11:49:55.076Z,19.5
2018-12-17T11:50:56.412Z,19.5
2018-12-17T11:51:57.804Z,19.4
2018-12-17T11:52:59.120Z,19.6
2018-12-17T11:54:00.457Z,19.7
2018-12-17T11:55:06.811Z,19.6
2018-12-17T11:56:08.187Z,19.6
2018-12-17T11:57:10.987Z,19.5
2018-12-17T11:58:12.269Z,19.5
2018-12-17T11:59:13.587Z,19.5
2018-12-17T12:00:15.951Z,19.5
2018-12-17T12:01:17.557Z,19.5
2018-12-17T12:02:19.240Z,19.5
2018-12-17T12:03:21.782Z,19.3
2018-12-17T12:04:23.106Z,19.3
2018-12-17T12:05:24.667Z,19.3
2018-12-17T12:06:26.245Z,19.3
2018-12-17T12:07:32.365Z,19.4
2018-12-17T12:08:36.135Z,19.5
2018-12-17T12:09:37.485Z,19.4
2018-12-17T12:10:43.756Z,19.4
2018-12-17T12:11:50.488Z,19.3
2018-12-17T12:12:52.301Z,19.3
2018-12-17T12:13:53.609Z,19.3
2018-12-17T12:14:56.813Z,19.3
2018-12-17T12:15:58.661Z,19.4
2018-12-17T12:16:59.998Z,19.5
2018-12-17T12:18:01.361Z,19.6
2018-12-17T12:19:02.706Z,19.7
2018-12-17T12:20:04.044Z,19.7
2018-12-17T12:21:07.445Z,19.7
2018-12-17T12:22:08.800Z,19.7
2018-12-17T12:23:10.211Z,19.8
2018-12-17T12:24:11.526Z,19.9
2018-12-17T12:25:12.943Z,20
2018-12-17T12:26:14.306Z,19.8
2018-12-17T12:27:21.656Z,19.8
2018-12-17T12:28:23.024Z,19.8
2018-12-17T12:29:24.586Z,19.7
2018-12-17T12:30:26.271Z,19.8
2018-12-17T12:31:27.697Z,19.8
2018-12-17T12:32:31.374Z,19.9
2018-12-17T12:33:33.258Z,19.9
2018-12-17T12:34:35.675Z,19.9
2018-12-17T12:35:37.236Z,19.8
2018-12-17T12:36:38.668Z,19.8
2018-12-17T12:37:39.964Z,19.8
2018-12-17T12:38:41.398Z,19.7
2018-12-17T12:39:44.950Z,19.7
2018-12-17T12:40:46.301Z,19.7
2018-12-17T12:41:51.060Z,19.9
2018-12-17T12:42:55.239Z,19.9
2018-12-17T12:43:59.598Z,19.9
2018-12-17T12:45:00.903Z,19.9
2018-12-17T12:46:02.236Z,19.9
2018-12-17T12:47:03.583Z,20
2018-12-17T12:48:05.127Z,19.9
2018-12-17T12:49:06.522Z,20
2018-12-17T12:50:07.864Z,20
2018-12-17T12:51:09.312Z,20.1
2018-12-17T12:52:14.965Z,19.9
2018-12-17T12:53:16.531Z,19.9
2018-12-17T12:54:20.737Z,19.9
2018-12-17T12:55:22.077Z,19.9
2018-12-17T12:56:23.725Z,20.1
2018-12-17T12:57:26.498Z,20.1
2018-12-17T12:58:27.842Z,20
2018-12-17T12:59:29.211Z,20.1
2018-12-17T13:00:30.657Z,20.1
2018-12-17T13:01:32.251Z,20
2018-12-17T13:02:36.400Z,20
2018-12-17T13:03:40.120Z,20
2018-12-17T13:04:41.516Z,20
2018-12-17T13:05:45.067Z,20.1
2018-12-17T13:06:49.461Z,20.1
2018-12-17T13:07:55.007Z,20.1
2018-12-17T13:08:56.669Z,20
2018-12-17T13:09:58.012Z,20
2018-12-17T13:10:59.335Z,20.1
2018-12-17T13:12:02.468Z,20.1
2018-12-17T13:13:03.803Z,20.1
2018-12-17T13:14:05.115Z,20
2018-12-17T13:15:08.732Z,20
2018-12-17T13:16:10.068Z,20.1
2018-12-17T13:17:11.821Z,20.2
2018-12-17T13:18:16.053Z,20
2018-12-17T13:19:17.396Z,20.1
2018-12-17T13:20:21.976Z,20
2018-12-17T13:21:23.295Z,20
2018-12-17T13:22:24.644Z,20
2018-12-17T13:23:28.589Z,20
2018-12-17T13:24:29.946Z,19.9
2018-12-17T13:25:31.336Z,19.8
2018-12-17T13:26:34.767Z,19.9
2018-12-17T13:27:36.122Z,20
2018-12-17T13:28:37.498Z,20
2018-12-17T13:29:40.205Z,20.1
2018-12-17T13:30:41.581Z,20.1
2018-12-17T13:31:42.899Z,20.1
2018-12-17T13:32:47.280Z,20
2018-12-17T13:33:50.025Z,20
2018-12-17T13:34:51.333Z,20.1
2018-12-17T13:35:52.672Z,20.2
2018-12-17T13:36:53.981Z,20.2
2018-12-17T13:37:57.793Z,20.1
2018-12-17T13:38:59.131Z,20.2
2018-12-17T13:40:00.472Z,20.2
2018-12-17T13:41:02.101Z,20.1
2018-12-17T13:42:08.319Z,20.2
2018-12-17T13:43:09.681Z,20.2
2018-12-17T13:44:10.978Z,20.3
2018-12-17T13:45:16.835Z,20.3
2018-12-17T13:46:18.187Z,20.3
2018-12-17T13:47:21.991Z,20.3
2018-12-17T13:48:23.310Z,20.3
2018-12-17T13:49:26.098Z,20.2
2018-12-17T13:50:30.136Z,20.1
2018-12-17T13:51:31.763Z,20.3
2018-12-17T13:52:33.313Z,20.3
2018-12-17T13:53:35.089Z,20.3
2018-12-17T13:54:36.394Z,20.4
2018-12-17T13:55:43.812Z,20.3
2018-12-17T13:56:46.444Z,20.4
2018-12-17T13:57:49.923Z,20.3
2018-12-17T13:58:51.222Z,20.3
2018-12-17T13:59:52.574Z,20.3
2018-12-17T14:00:53.905Z,20.3
2018-12-17T14:01:55.352Z,20.3
2018-12-17T14:03:01.050Z,20.3
2018-12-17T14:04:04.367Z,20.2
2018-12-17T14:05:05.729Z,20.1
2018-12-17T14:06:21.781Z,20.2